Time;durP1;ratioP1;P1;durP2;ratioP2;P2;SDS_P1;SDS_P2;PMS_P1;PMS_P2;Temp;Humidity;BMP_temperature;BMP_pressure;BME280_temperature;BME280_humidity;BME280_pressure;Samples;Min_cycle;Max_cycle;Signal;HPM_P1;HPM_P2
2022/04/13 00:01:55;;;;;;;8.65;3.38;;;;;;;;;;5052986;28;20067;-73
2022/04/13 00:04:21;;;;;;;10.07;3.47;;;;;;;;;;5053002;28;20032;-73
2022/04/13 00:06:47;;;;;;;7.40;3.13;;;;;;;;;;5052836;28;20021;-73
2022/04/13 00:09:13;;;;;;;11.73;3.63;;;;;;;;;;5052636;28;20132;-73
2022/04/13 00:11:39;;;;;;;13.20;3.28;;;;;;;;;;5052391;28;20044;-73
2022/04/13 00:14:05;;;;;;;9.93;3.63;;;;;;;;;;5061170;28;20387;-73
2022/04/13 00:16:31;;;;;;;10.45;3.53;;;;;;;;;;5072693;28;20032;-74
2022/04/13 00:18:57;;;;;;;8.48;4.22;;;;;;;;;;5072514;28;20044;-73
2022/04/13 00:21:23;;;;;;;9.82;3.95;;;;;;;;;;5051210;28;20360;-73
2022/04/13 00:23:49;;;;;;;6.97;3.90;;;;;;;;;;5052676;28;20538;-73
2022/04/13 00:26:15;;;;;;;8.57;3.85;;;;;;;;;;5052330;28;20113;-73
2022/04/13 00:28:41;;;;;;;12.20;3.80;;;;;;;;;;5052526;28;20107;-73
2022/04/13 00:31:07;;;;;;;14.38;4.47;;;;;;;;;;5061613;28;20451;-73
2022/04/13 00:33:33;;;;;;;14.68;4.07;;;;;;;;;;5072273;28;20086;-74
2022/04/13 00:35:59;;;;;;;15.63;4.88;;;;;;;;;;5072198;28;20025;-73
2022/04/13 00:38:26;;;;;;;9.77;3.83;;;;;;;;;;5072164;28;20522;-73
2022/04/13 00:40:52;;;;;;;13.20;3.50;;;;;;;;;;5071303;28;20059;-74
2022/04/13 00:43:18;;;;;;;9.55;3.53;;;;;;;;;;5052168;28;20029;-73
2022/04/13 00:45:45;;;;;;;12.13;3.55;;;;;;;;;;5052185;28;20033;-73
2022/04/13 00:48:15;;;;;;;8.55;3.75;;;;;;;;;;5052198;28;20032;-73
2022/04/13 00:50:41;;;;;;;19.63;4.28;;;;;;;;;;5051994;28;20029;-73
2022/04/13 00:53:08;;;;;;;10.50;3.90;;;;;;;;;;5052048;28;20021;-73
2022/04/13 00:55:37;;;;;;;10.68;3.67;;;;;;;;;;5051850;28;20036;-73
2022/04/13 00:58:03;;;;;;;10.30;3.90;;;;;;;;;;5051846;28;20028;-73
2022/04/13 01:00:29;;;;;;;10.88;4.40;;;;;;;;;;5051945;28;20470;-73
2022/04/13 01:02:57;;;;;;;11.98;4.30;;;;;;;;;;5051986;28;20036;-73
2022/04/13 01:05:23;;;;;;;8.52;4.45;;;;;;;;;;5051846;28;20055;-73
2022/04/13 01:07:50;;;;;;;10.65;4.28;;;;;;;;;;5033711;28;20386;-73
2022/04/13 01:10:17;;;;;;;9.57;3.90;;;;;;;;;;5051725;28;20438;-73
2022/04/13 01:12:43;;;;;;;6.70;3.53;;;;;;;;;;5051709;28;20379;-73
2022/04/13 01:15:09;;;;;;;9.18;3.60;;;;;;;;;;5068942;28;20035;-73
2022/04/13 01:17:39;;;;;;;9.20;3.88;;;;;;;;;;5071802;28;20136;-73
2022/04/13 01:20:05;;;;;;;11.80;3.95;;;;;;;;;;5071689;28;20035;-73
2022/04/13 01:22:31;;;;;;;10.00;4.63;;;;;;;;;;5070758;28;20033;-73
2022/04/13 01:24:57;;;;;;;7.53;4.47;;;;;;;;;;5071554;28;20043;-74
2022/04/13 01:27:23;;;;;;;11.50;5.15;;;;;;;;;;5071506;28;20386;-73
2022/04/13 01:29:54;;;;;;;12.50;4.30;;;;;;;;;;5071495;28;20115;-74
2022/04/13 01:32:20;;;;;;;10.75;4.43;;;;;;;;;;5071690;28;20198;-73
2022/04/13 01:34:53;;;;;;;14.40;4.78;;;;;;;;;;5071639;28;20052;-73
2022/04/13 01:37:19;;;;;;;12.43;4.28;;;;;;;;;;5071454;28;20029;-73
2022/04/13 01:39:45;;;;;;;15.02;4.35;;;;;;;;;;5071448;28;20078;-73
2022/04/13 01:42:11;;;;;;;10.18;4.13;;;;;;;;;;5059532;28;20024;-73
2022/04/13 01:44:38;;;;;;;10.50;4.13;;;;;;;;;;5051280;28;20017;-74
2022/04/13 01:47:04;;;;;;;8.80;4.70;;;;;;;;;;5051497;28;20068;-73
2022/04/13 01:49:30;;;;;;;12.27;5.20;;;;;;;;;;5051413;28;20104;-73
2022/04/13 01:51:56;;;;;;;9.75;4.88;;;;;;;;;;5051162;28;20104;-73
2022/04/13 01:54:22;;;;;;;10.48;4.53;;;;;;;;;;5051245;28;20108;-73
2022/04/13 01:56:48;;;;;;;15.60;6.28;;;;;;;;;;5051302;28;20424;-74
2022/04/13 01:59:14;;;;;;;12.10;4.80;;;;;;;;;;5051308;28;20029;-74
2022/04/13 02:01:44;;;;;;;11.25;5.40;;;;;;;;;;5051229;28;20032;-74
2022/04/13 02:04:24;;;;;;;14.63;5.38;;;;;;;;;;5051046;28;20568;-74
2022/04/13 02:06:50;;;;;;;13.52;5.22;;;;;;;;;;5051170;28;20040;-74
2022/04/13 02:09:17;;;;;;;12.85;5.57;;;;;;;;;;5051004;28;20040;-73
2022/04/13 02:11:43;;;;;;;12.00;5.05;;;;;;;;;;5051104;28;20182;-74
2022/04/13 02:14:10;;;;;;;19.67;5.28;;;;;;;;;;5060247;28;20434;-74
2022/04/13 02:16:36;;;;;;;16.00;5.60;;;;;;;;;;5071201;28;20032;-73
2022/04/13 02:19:03;;;;;;;11.20;6.10;;;;;;;;;;5071135;28;20059;-73
2022/04/13 02:21:30;;;;;;;14.30;5.80;;;;;;;;;;5070874;28;20082;-73
2022/04/13 02:23:56;;;;;;;12.85;5.75;;;;;;;;;;5071062;28;20027;-74
2022/04/13 02:26:22;;;;;;;14.45;5.88;;;;;;;;;;5070799;28;20028;-74
2022/04/13 02:28:49;;;;;;;11.73;5.53;;;;;;;;;;5070946;28;20027;-74
2022/04/13 02:31:15;;;;;;;10.68;5.47;;;;;;;;;;5070869;28;20028;-74
2022/04/13 02:33:41;;;;;;;9.52;5.55;;;;;;;;;;5072687;28;20024;-74
2022/04/13 02:36:07;;;;;;;12.73;5.40;;;;;;;;;;5074422;28;20107;-73
2022/04/13 02:38:33;;;;;;;8.65;4.90;;;;;;;;;;5074513;28;20523;-73
2022/04/13 02:40:59;;;;;;;13.55;6.50;;;;;;;;;;5072395;28;20063;-73
2022/04/13 02:43:29;;;;;;;11.60;5.05;;;;;;;;;;5054475;28;20385;-73
2022/04/13 02:45:58;;;;;;;12.23;5.78;;;;;;;;;;5054349;28;20021;-73
2022/04/13 02:48:25;;;;;;;8.25;4.22;;;;;;;;;;5054431;28;20021;-73
2022/04/13 02:50:52;;;;;;;8.80;4.85;;;;;;;;;;5054299;28;20033;-73
2022/04/13 02:53:18;;;;;;;15.82;5.30;;;;;;;;;;5054384;28;20025;-73
2022/04/13 02:55:44;;;;;;;9.07;4.90;;;;;;;;;;5054109;28;20486;-73
2022/04/13 02:58:10;;;;;;;17.92;5.25;;;;;;;;;;5054307;28;20021;-73
2022/04/13 03:00:36;;;;;;;9.25;4.50;;;;;;;;;;5054012;28;20021;-73
2022/04/13 03:03:03;;;;;;;11.68;4.95;;;;;;;;;;5054070;28;20025;-73
2022/04/13 03:05:29;;;;;;;12.10;5.13;;;;;;;;;;5054115;28;20103;-74
2022/04/13 03:07:55;;;;;;;11.23;5.50;;;;;;;;;;5053944;28;20104;-73
2022/04/13 03:10:21;;;;;;;9.52;4.82;;;;;;;;;;5053765;28;20069;-73
2022/04/13 03:12:47;;;;;;;13.20;5.75;;;;;;;;;;5053870;28;20486;-73
2022/04/13 03:15:14;;;;;;;11.27;5.75;;;;;;;;;;5071690;28;20142;-73
2022/04/13 03:17:40;;;;;;;12.73;6.18;;;;;;;;;;5073875;28;20028;-73
2022/04/13 03:20:07;;;;;;;12.63;6.07;;;;;;;;;;5073747;28;20082;-73
2022/04/13 03:22:33;;;;;;;14.85;5.68;;;;;;;;;;5073650;28;20039;-73
2022/04/13 03:25:02;;;;;;;25.10;8.32;;;;;;;;;;5074084;28;20542;-73
2022/04/13 03:27:28;;;;;;;11.25;5.78;;;;;;;;;;5073620;28;20178;-73
2022/04/13 03:29:54;;;;;;;13.18;5.97;;;;;;;;;;5073634;28;20039;-73
2022/04/13 03:32:20;;;;;;;15.55;5.60;;;;;;;;;;5073585;28;20077;-73
2022/04/13 03:34:46;;;;;;;16.98;5.97;;;;;;;;;;5073485;28;20060;-73
2022/04/13 03:37:12;;;;;;;11.90;5.15;;;;;;;;;;5073291;28;20110;-73
2022/04/13 03:39:38;;;;;;;12.45;5.80;;;;;;;;;;5073521;28;20149;-73
2022/04/13 03:42:05;;;;;;;13.38;5.93;;;;;;;;;;5062403;28;20111;-73
2022/04/13 03:44:31;;;;;;;9.85;5.15;;;;;;;;;;5052695;28;20108;-73
2022/04/13 03:46:56;;;;;;;12.98;5.30;;;;;;;;;;5035377;28;20426;-73
2022/04/13 03:49:23;;;;;;;13.65;6.40;;;;;;;;;;5053214;28;20067;-73
2022/04/13 03:51:49;;;;;;;10.57;5.40;;;;;;;;;;5053245;28;20028;-73
2022/04/13 03:54:15;;;;;;;11.75;6.38;;;;;;;;;;5053102;28;20521;-73
2022/04/13 03:56:41;;;;;;;11.43;6.97;;;;;;;;;;5052762;28;20029;-74
2022/04/13 03:59:07;;;;;;;16.63;5.97;;;;;;;;;;5053085;28;20075;-73
2022/04/13 04:01:34;;;;;;;14.02;6.68;;;;;;;;;;5052849;28;20029;-73
2022/04/13 04:04:00;;;;;;;18.15;6.75;;;;;;;;;;5052826;28;20032;-74
2022/04/13 04:06:26;;;;;;;11.60;6.57;;;;;;;;;;5052900;28;20021;-75
2022/04/13 04:08:52;;;;;;;14.77;7.35;;;;;;;;;;5052833;28;20123;-73
2022/04/13 04:11:18;;;;;;;15.38;6.35;;;;;;;;;;5053307;28;20382;-73
2022/04/13 04:13:44;;;;;;;16.92;6.57;;;;;;;;;;5058589;28;20040;-73
2022/04/13 04:16:10;;;;;;;16.92;7.20;;;;;;;;;;5073011;28;20108;-73
2022/04/13 04:18:37;;;;;;;15.73;8.05;;;;;;;;;;5073384;28;20120;-73
2022/04/13 04:21:03;;;;;;;18.70;6.88;;;;;;;;;;5072727;28;20072;-73
2022/04/13 04:23:29;;;;;;;16.98;7.43;;;;;;;;;;5072544;28;20032;-73
2022/04/13 04:25:55;;;;;;;17.23;6.90;;;;;;;;;;5072467;28;20098;-73
2022/04/13 04:28:21;;;;;;;17.83;7.63;;;;;;;;;;5072558;28;20025;-73
2022/04/13 04:30:47;;;;;;;20.67;8.02;;;;;;;;;;5072348;28;20020;-73
2022/04/13 04:33:13;;;;;;;16.90;7.93;;;;;;;;;;5072452;28;20451;-73
2022/04/13 04:35:39;;;;;;;16.33;8.65;;;;;;;;;;5072427;28;20066;-73
2022/04/13 04:38:06;;;;;;;16.75;8.70;;;;;;;;;;5072419;28;20025;-73
2022/04/13 04:40:32;;;;;;;20.45;9.02;;;;;;;;;;5072213;28;20048;-73
2022/04/13 04:42:58;;;;;;;17.85;8.60;;;;;;;;;;5053996;28;20486;-73
2022/04/13 04:45:24;;;;;;;21.20;8.15;;;;;;;;;;5052196;28;20017;-73
2022/04/13 04:47:52;;;;;;;16.35;7.82;;;;;;;;;;5052261;28;20087;-73
2022/04/13 04:50:18;;;;;;;15.70;7.82;;;;;;;;;;5052274;28;20021;-73
2022/04/13 04:52:45;;;;;;;16.95;8.18;;;;;;;;;;5052205;28;20123;-73
2022/04/13 04:55:12;;;;;;;17.05;9.77;;;;;;;;;;5052160;28;20474;-73
2022/04/13 04:57:38;;;;;;;19.63;10.32;;;;;;;;;;5051935;28;20207;-73
2022/04/13 05:00:10;;;;;;;21.17;8.98;;;;;;;;;;5052153;28;20202;-73
2022/04/13 05:02:37;;;;;;;22.30;8.93;;;;;;;;;;5052033;28;20309;-73
2022/04/13 05:05:03;;;;;;;20.00;9.20;;;;;;;;;;5051902;28;20410;-73
2022/04/13 05:07:30;;;;;;;29.00;10.93;;;;;;;;;;5051817;28;20025;-73
2022/04/13 05:09:56;;;;;;;19.58;8.85;;;;;;;;;;5051713;28;20052;-73
2022/04/13 05:12:22;;;;;;;17.55;9.90;;;;;;;;;;5051826;28;20033;-73
2022/04/13 05:14:48;;;;;;;20.30;10.77;;;;;;;;;;5066065;28;20438;-73
2022/04/13 05:17:15;;;;;;;20.90;10.38;;;;;;;;;;5071759;28;20099;-73
2022/04/13 05:19:41;;;;;;;18.45;10.80;;;;;;;;;;5071698;28;20096;-73
2022/04/13 05:22:07;;;;;;;24.95;11.40;;;;;;;;;;5071579;28;20033;-73
2022/04/13 05:24:33;;;;;;;27.70;11.65;;;;;;;;;;5071927;28;20029;-73
2022/04/13 05:26:59;;;;;;;21.63;10.40;;;;;;;;;;5053328;28;20044;-73
2022/04/13 05:29:25;;;;;;;27.17;10.80;;;;;;;;;;5071645;28;20032;-73
2022/04/13 05:31:51;;;;;;;21.73;11.05;;;;;;;;;;5071502;28;20563;-73
2022/04/13 05:34:17;;;;;;;25.48;12.23;;;;;;;;;;5071669;28;20045;-73
2022/04/13 05:36:43;;;;;;;26.77;12.93;;;;;;;;;;5071569;28;20042;-73
2022/04/13 05:39:09;;;;;;;24.23;12.27;;;;;;;;;;5071685;28;20032;-73
2022/04/13 05:41:35;;;;;;;27.23;12.60;;;;;;;;;;5064764;28;20033;-73
2022/04/13 05:44:01;;;;;;;22.77;11.98;;;;;;;;;;5051441;28;20029;-73
2022/04/13 05:46:27;;;;;;;26.02;12.23;;;;;;;;;;5051602;28;20017;-73
2022/04/13 05:48:53;;;;;;;20.35;10.68;;;;;;;;;;5051323;28;20108;-73
2022/04/13 05:51:19;;;;;;;21.85;11.50;;;;;;;;;;5051499;28;20025;-73
2022/04/13 05:53:45;;;;;;;23.42;11.77;;;;;;;;;;5051433;28;20029;-73
2022/04/13 05:56:11;;;;;;;24.75;12.73;;;;;;;;;;5051327;28;20051;-73
2022/04/13 05:58:37;;;;;;;22.20;12.07;;;;;;;;;;5051500;28;20387;-74
2022/04/13 06:01:03;;;;;;;24.85;12.40;;;;;;;;;;5051240;28;20025;-74
2022/04/13 06:03:29;;;;;;;32.15;11.60;;;;;;;;;;5033449;28;20024;-73
2022/04/13 06:05:55;;;;;;;22.88;11.93;;;;;;;;;;5051513;28;20375;-73
2022/04/13 06:08:21;;;;;;;30.92;13.00;;;;;;;;;;5052616;28;20025;-73
2022/04/13 06:10:47;;;;;;;22.33;12.38;;;;;;;;;;5037006;28;20467;-73
2022/04/13 06:13:14;;;;;;;27.48;12.32;;;;;;;;;;5056493;28;20120;-73
2022/04/13 06:15:40;;;;;;;25.65;12.75;;;;;;;;;;5075155;28;20028;-73
2022/04/13 06:18:06;;;;;;;26.88;13.02;;;;;;;;;;5075256;28;20032;-73
2022/04/13 06:20:32;;;;;;;24.23;14.02;;;;;;;;;;5074943;28;20033;-73
2022/04/13 06:22:58;;;;;;;28.65;13.10;;;;;;;;;;5074771;28;20044;-73
2022/04/13 06:25:24;;;;;;;26.52;14.15;;;;;;;;;;5074905;28;20021;-73
2022/04/13 06:27:50;;;;;;;25.25;13.57;;;;;;;;;;5074886;28;20467;-73
2022/04/13 06:30:16;;;;;;;24.50;13.70;;;;;;;;;;5074849;28;20028;-73
2022/04/13 06:32:44;;;;;;;29.80;13.50;;;;;;;;;;5074943;28;20036;-73
2022/04/13 06:35:11;;;;;;;25.38;14.60;;;;;;;;;;5074795;28;20136;-73
2022/04/13 06:37:38;;;;;;;28.52;14.48;;;;;;;;;;5074829;28;20059;-74
2022/04/13 06:40:05;;;;;;;22.75;14.10;;;;;;;;;;5074663;28;20060;-73
2022/04/13 06:42:36;;;;;;;29.70;14.73;;;;;;;;;;5060126;28;20037;-73
2022/04/13 06:45:03;;;;;;;23.15;12.23;;;;;;;;;;5054368;28;20494;-73
2022/04/13 06:47:29;;;;;;;27.75;14.05;;;;;;;;;;5054551;28;20436;-73
2022/04/13 06:49:55;;;;;;;27.50;14.23;;;;;;;;;;5054486;28;20028;-73
2022/04/13 06:52:21;;;;;;;32.05;14.73;;;;;;;;;;5054186;28;20052;-73
2022/04/13 06:54:48;;;;;;;31.30;15.48;;;;;;;;;;5054349;28;20035;-73
2022/04/13 06:57:14;;;;;;;30.58;16.08;;;;;;;;;;5054357;28;20020;-73
2022/04/13 06:59:40;;;;;;;25.08;14.90;;;;;;;;;;5055012;28;20035;-74
2022/04/13 07:02:12;;;;;;;26.40;14.60;;;;;;;;;;5054803;28;20109;-73
2022/04/13 07:04:39;;;;;;;32.17;16.05;;;;;;;;;;5054944;28;20021;-74
2022/04/13 07:07:05;;;;;;;29.27;15.90;;;;;;;;;;5036785;28;20111;-73
2022/04/13 07:09:32;;;;;;;27.25;15.23;;;;;;;;;;5053926;28;20049;-73
2022/04/13 07:11:58;;;;;;;32.17;15.82;;;;;;;;;;5053879;28;20024;-73
2022/04/13 07:14:24;;;;;;;32.28;16.38;;;;;;;;;;5064742;28;20097;-73
2022/04/13 07:16:50;;;;;;;24.50;15.07;;;;;;;;;;5073946;28;20032;-74
2022/04/13 07:19:16;;;;;;;33.80;15.63;;;;;;;;;;5073167;28;20037;-73
2022/04/13 07:21:42;;;;;;;23.67;13.80;;;;;;;;;;5073387;28;20035;-73
2022/04/13 07:24:10;;;;;;;28.55;14.90;;;;;;;;;;5074174;28;20023;-73
2022/04/13 07:26:36;;;;;;;22.90;13.75;;;;;;;;;;5055637;28;20499;-73
2022/04/13 07:29:02;;;;;;;30.52;13.52;;;;;;;;;;5073831;28;20037;-73
2022/04/13 07:31:29;;;;;;;23.02;13.05;;;;;;;;;;5073803;28;20532;-73
2022/04/13 07:33:56;;;;;;;22.02;11.85;;;;;;;;;;5073645;28;20486;-73
2022/04/13 07:36:22;;;;;;;18.60;10.82;;;;;;;;;;5073692;28;20032;-73
2022/04/13 07:38:50;;;;;;;21.27;10.45;;;;;;;;;;5073635;28;20027;-73
2022/04/13 07:41:16;;;;;;;17.63;9.60;;;;;;;;;;5069512;28;20312;-73
2022/04/13 07:43:43;;;;;;;19.13;9.52;;;;;;;;;;5053564;28;20037;-74
2022/04/13 07:46:10;;;;;;;20.08;9.95;;;;;;;;;;5053516;28;20359;-73
2022/04/13 07:48:36;;;;;;;18.63;10.05;;;;;;;;;;5053449;28;20040;-73
2022/04/13 07:51:02;;;;;;;17.33;9.40;;;;;;;;;;5035215;28;20033;-73
2022/04/13 07:53:28;;;;;;;21.38;10.30;;;;;;;;;;5053298;28;20025;-73
2022/04/13 07:55:54;;;;;;;17.52;9.30;;;;;;;;;;5053013;28;20044;-73
2022/04/13 07:58:20;;;;;;;16.52;9.55;;;;;;;;;;5053253;28;20033;-73
2022/04/13 08:00:46;;;;;;;18.45;10.10;;;;;;;;;;5053188;28;20047;-73
2022/04/13 08:03:12;;;;;;;15.10;9.30;;;;;;;;;;5052858;28;20150;-74
2022/04/13 08:05:39;;;;;;;17.40;9.02;;;;;;;;;;5053048;28;20036;-74
2022/04/13 08:08:06;;;;;;;14.75;9.13;;;;;;;;;;5053058;28;20028;-73
2022/04/13 08:10:32;;;;;;;13.02;8.13;;;;;;;;;;5052788;28;20045;-73
2022/04/13 08:12:58;;;;;;;18.27;8.80;;;;;;;;;;5052875;28;20033;-73
2022/04/13 08:15:24;;;;;;;19.23;9.00;;;;;;;;;;5072026;28;20816;-73
2022/04/13 08:17:50;;;;;;;20.45;9.52;;;;;;;;;;5072899;28;20040;-73
2022/04/13 08:20:16;;;;;;;13.55;7.15;;;;;;;;;;5072628;28;20383;-73
2022/04/13 08:22:43;;;;;;;13.27;6.80;;;;;;;;;;5072543;28;20459;-73
2022/04/13 08:25:10;;;;;;;11.48;5.35;;;;;;;;;;5072583;28;20122;-73
2022/04/13 08:27:36;;;;;;;12.85;6.22;;;;;;;;;;5072618;28;20127;-74
2022/04/13 08:30:02;;;;;;;9.23;5.32;;;;;;;;;;5054304;28;20024;-73
2022/04/13 08:32:28;;;;;;;18.30;5.28;;;;;;;;;;5072398;28;20054;-73
2022/04/13 08:34:54;;;;;;;11.90;6.03;;;;;;;;;;5072367;28;20020;-73
2022/04/13 08:37:20;;;;;;;9.95;5.50;;;;;;;;;;5072291;28;20368;-74
2022/04/13 08:39:46;;;;;;;10.60;4.93;;;;;;;;;;5072355;28;20433;-74
2022/04/13 08:42:13;;;;;;;10.10;4.97;;;;;;;;;;5060407;28;20063;-73
2022/04/13 08:44:39;;;;;;;12.40;4.90;;;;;;;;;;5052258;28;20033;-73
2022/04/13 08:47:08;;;;;;;12.15;5.45;;;;;;;;;;5052292;28;20094;-73
2022/04/13 08:49:34;;;;;;;8.98;5.20;;;;;;;;;;5052222;28;20022;-73
2022/04/13 08:52:03;;;;;;;12.50;6.25;;;;;;;;;;5052124;28;20033;-74
2022/04/13 08:54:31;;;;;;;8.95;5.78;;;;;;;;;;5052205;28;20021;-73
2022/04/13 08:56:58;;;;;;;15.65;5.60;;;;;;;;;;5017830;28;20032;-74
2022/04/13 08:59:26;;;;;;;11.13;5.57;;;;;;;;;;5052046;28;20029;-73
2022/04/13 09:01:56;;;;;;;13.10;5.90;;;;;;;;;;5052002;28;20040;-74
2022/04/13 09:04:25;;;;;;;12.13;6.47;;;;;;;;;;5051987;28;20032;-73
2022/04/13 09:06:51;;;;;;;9.52;6.07;;;;;;;;;;5051983;28;20033;-74
2022/04/13 09:09:27;;;;;;;13.45;5.93;;;;;;;;;;5051751;28;20040;-73
2022/04/13 09:11:55;;;;;;;13.25;6.07;;;;;;;;;;5051858;28;20086;-73
2022/04/13 09:14:21;;;;;;;8.73;5.03;;;;;;;;;;5062356;28;20363;-73
2022/04/13 09:16:47;;;;;;;10.77;5.40;;;;;;;;;;5071795;28;20042;-73
2022/04/13 09:19:13;;;;;;;10.27;5.53;;;;;;;;;;5071772;28;20099;-73
2022/04/13 09:21:40;;;;;;;9.43;4.18;;;;;;;;;;5071536;28;20021;-73
2022/04/13 09:24:08;;;;;;;13.70;4.40;;;;;;;;;;5071927;28;20382;-74
2022/04/13 09:26:34;;;;;;;8.65;4.15;;;;;;;;;;5071746;28;20058;-74
2022/04/13 09:29:00;;;;;;;9.68;4.78;;;;;;;;;;5071851;28;20177;-74
2022/04/13 09:31:26;;;;;;;10.95;5.60;;;;;;;;;;5071825;28;20025;-74
2022/04/13 09:33:52;;;;;;;11.52;5.75;;;;;;;;;;5071728;28;20787;-73
2022/04/13 09:36:18;;;;;;;9.95;5.05;;;;;;;;;;5071689;28;20082;-73
2022/04/13 09:38:44;;;;;;;8.98;5.22;;;;;;;;;;5071746;28;20078;-74
2022/04/13 09:41:11;;;;;;;11.60;6.05;;;;;;;;;;5068219;28;20467;-73
2022/04/13 09:43:37;;;;;;;15.30;6.25;;;;;;;;;;5053500;28;20032;-73
2022/04/13 09:46:04;;;;;;;8.68;5.05;;;;;;;;;;5055627;28;20025;-73
2022/04/13 09:48:30;;;;;;;8.60;4.78;;;;;;;;;;5055850;28;20479;-73
2022/04/13 09:51:00;;;;;;;7.72;4.72;;;;;;;;;;5055588;28;20027;-73
2022/04/13 09:53:27;;;;;;;9.77;4.72;;;;;;;;;;5055619;28;20044;-74
2022/04/13 09:55:57;;;;;;;8.35;4.07;;;;;;;;;;5055347;28;20024;-74
2022/04/13 09:58:24;;;;;;;11.88;4.28;;;;;;;;;;5055521;28;20106;-73
2022/04/13 10:00:52;;;;;;;7.50;4.03;;;;;;;;;;5037432;28;20086;-73
2022/04/13 10:03:19;;;;;;;11.88;4.90;;;;;;;;;;5055445;28;20119;-73
2022/04/13 10:05:46;;;;;;;7.90;4.05;;;;;;;;;;5055166;28;20032;-72
2022/04/13 10:08:13;;;;;;;8.60;3.53;;;;;;;;;;5055357;28;20035;-73
2022/04/13 10:10:41;;;;;;;8.90;3.28;;;;;;;;;;5055089;28;20093;-74
2022/04/13 10:13:07;;;;;;;10.75;3.17;;;;;;;;;;5055209;28;20055;-73
2022/04/13 10:15:33;;;;;;;7.88;2.70;;;;;;;;;;5055120;28;20025;-73
2022/04/13 10:18:00;;;;;;;8.35;4.18;;;;;;;;;;5055263;28;20091;-73
2022/04/13 10:20:45;;;;;;;10.25;3.60;;;;;;;;;;5066078;28;20079;-73
2022/04/13 10:23:11;;;;;;;9.00;4.10;;;;;;;;;;5074803;28;20033;-73
2022/04/13 10:25:37;;;;;;;12.02;4.57;;;;;;;;;;5074924;28;20077;-73
2022/04/13 10:28:04;;;;;;;9.98;4.93;;;;;;;;;;5074914;28;20017;-73
2022/04/13 10:30:31;;;;;;;10.75;5.00;;;;;;;;;;5074884;28;20471;-73
2022/04/13 10:32:58;;;;;;;8.63;4.63;;;;;;;;;;5074972;28;20033;-74
2022/04/13 10:35:24;;;;;;;12.45;5.53;;;;;;;;;;5074705;28;20025;-73
2022/04/13 10:37:51;;;;;;;13.05;5.68;;;;;;;;;;5074708;28;20107;-73
2022/04/13 10:40:18;;;;;;;15.75;5.85;;;;;;;;;;5074760;28;20031;-73
2022/04/13 10:42:48;;;;;;;11.13;5.43;;;;;;;;;;5058364;28;20378;-73
2022/04/13 10:45:14;;;;;;;11.15;4.95;;;;;;;;;;5054645;28;20364;-73
2022/04/13 10:47:49;;;;;;;14.35;4.97;;;;;;;;;;5054613;28;20032;-73
2022/04/13 10:50:17;;;;;;;9.32;4.32;;;;;;;;;;5036547;28;20052;-73
2022/04/13 10:52:52;;;;;;;9.05;4.20;;;;;;;;;;5054457;28;20552;-73
2022/04/13 10:55:20;;;;;;;7.90;3.40;;;;;;;;;;5054327;28;20075;-73
2022/04/13 10:57:52;;;;;;;10.50;3.50;;;;;;;;;;5054358;28;20036;-73
2022/04/13 11:00:19;;;;;;;9.93;3.67;;;;;;;;;;5054383;28;20029;-73
2022/04/13 11:02:54;;;;;;;12.05;3.65;;;;;;;;;;5054388;28;20029;-73
2022/04/13 11:05:21;;;;;;;9.75;3.58;;;;;;;;;;5054129;28;20028;-73
2022/04/13 11:07:47;;;;;;;8.57;3.42;;;;;;;;;;5054053;28;20043;-73
2022/04/13 11:10:16;;;;;;;8.25;3.67;;;;;;;;;;5054006;28;20114;-73
2022/04/13 11:12:42;;;;;;;8.25;3.33;;;;;;;;;;5054158;28;20021;-73
2022/04/13 11:15:09;;;;;;;9.27;3.72;;;;;;;;;;5070967;28;20115;-73
2022/04/13 11:17:40;;;;;;;7.20;2.10;;;;;;;;;;5074263;28;20025;-73
2022/04/13 11:20:17;;;;;;;10.82;3.03;;;;;;;;;;5074021;28;20020;-73
2022/04/13 11:22:43;;;;;;;9.15;3.00;;;;;;;;;;5073815;28;20039;-73
2022/04/13 11:25:09;;;;;;;8.20;3.22;;;;;;;;;;5073828;28;20139;-73
2022/04/13 11:27:51;;;;;;;8.07;3.30;;;;;;;;;;5073813;28;20064;-73
2022/04/13 11:30:17;;;;;;;8.25;3.97;;;;;;;;;;5073763;28;20304;-74
2022/04/13 11:32:45;;;;;;;12.10;4.00;;;;;;;;;;5074022;28;20025;-73
2022/04/13 11:35:29;;;;;;;9.27;3.90;;;;;;;;;;5074155;28;20028;-73
2022/04/13 11:38:06;;;;;;;10.63;3.67;;;;;;;;;;5056360;28;20423;-73
2022/04/13 11:40:32;;;;;;;8.43;3.80;;;;;;;;;;5074418;28;20378;-73
2022/04/13 11:43:04;;;;;;;9.95;3.08;;;;;;;;;;5074010;28;20164;-73
2022/04/13 11:45:30;;;;;;;;;;;;;;;;;;5073920;28;20047;-73
2022/04/13 11:47:58;;;;;;;11.30;3.10;;;;;;;;;;5073629;28;19905;-73
2022/04/13 11:50:24;;;;;;;9.38;3.35;;;;;;;;;;5073458;28;20061;-73
2022/04/13 11:53:07;;;;;;;12.57;4.47;;;;;;;;;;5073276;28;20115;-73
2022/04/13 11:55:35;;;;;;;;;;;;;;;;;;5073800;28;20029;-73
2022/04/13 11:58:21;;;;;;;10.55;3.70;;;;;;;;;;5073312;28;19911;-73
2022/04/13 12:00:50;;;;;;;9.38;3.45;;;;;;;;;;5073351;28;20029;-73
2022/04/13 12:03:20;;;;;;;10.90;3.10;;;;;;;;;;5073225;28;20032;-73
2022/04/13 12:05:48;;;;;;;8.20;2.80;;;;;;;;;;5072382;28;20032;-73
2022/04/13 12:08:17;;;;;;;7.60;2.80;;;;;;;;;;5073204;28;20383;-74
2022/04/13 12:10:51;;;;;;;10.95;4.13;;;;;;;;;;5072611;28;20044;-73
2022/04/13 12:13:17;;;;;;;10.95;3.50;;;;;;;;;;5072893;28;20040;-75
2022/04/13 12:15:50;;;;;;;8.02;3.85;;;;;;;;;;5072920;28;20032;-73
2022/04/13 12:18:16;;;;;;;9.43;3.67;;;;;;;;;;5054906;28;20032;-74
2022/04/13 12:20:42;;;;;;;13.20;4.03;;;;;;;;;;5072498;28;20024;-74
2022/04/13 12:23:27;;;;;;;11.95;3.38;;;;;;;;;;5072707;28;20039;-75
2022/04/13 12:25:54;;;;;;;10.93;3.65;;;;;;;;;;5072451;28;20040;-74
2022/04/13 12:28:22;;;;;;;8.95;3.35;;;;;;;;;;5072694;28;20021;-75
2022/04/13 12:30:58;;;;;;;10.90;3.55;;;;;;;;;;5072558;28;20478;-75
2022/04/13 12:33:25;;;;;;;10.15;3.45;;;;;;;;;;5072645;28;20363;-74
2022/04/13 12:35:52;;;;;;;11.38;4.05;;;;;;;;;;5054292;28;20027;-74
2022/04/13 12:38:25;;;;;;;10.63;4.43;;;;;;;;;;5072655;28;20139;-74
2022/04/13 12:41:04;;;;;;;14.15;5.13;;;;;;;;;;5071742;28;20027;-74
2022/04/13 12:43:31;;;;;;;12.60;5.00;;;;;;;;;;5034416;28;20032;-74
2022/04/13 12:45:57;;;;;;;10.60;5.10;;;;;;;;;;5052389;28;20028;-74
2022/04/13 12:48:29;;;;;;;12.80;5.07;;;;;;;;;;5052312;28;20037;-74
2022/04/13 12:50:59;;;;;;;18.85;6.18;;;;;;;;;;5052158;28;20100;-74
2022/04/13 12:53:25;;;;;;;16.90;6.15;;;;;;;;;;5052372;28;20497;-74
2022/04/13 12:55:58;;;;;;;11.25;5.28;;;;;;;;;;5052048;28;20032;-74
2022/04/13 12:58:24;;;;;;;;;;;;;;;;;;5052624;28;20464;-74
2022/04/13 13:00:50;;;;;;;22.75;8.60;;;;;;;;;;5052088;28;20013;-75
2022/04/13 13:03:16;;;;;;;18.48;7.68;;;;;;;;;;5052130;28;20379;-74
2022/04/13 13:05:43;;;;;;;13.82;6.50;;;;;;;;;;5052050;28;20416;-75
2022/04/13 13:08:09;;;;;;;14.13;6.35;;;;;;;;;;5052177;28;20053;-74
2022/04/13 13:10:35;;;;;;;16.35;5.65;;;;;;;;;;5051939;28;20052;-74
2022/04/13 13:13:18;;;;;;;9.80;3.80;;;;;;;;;;5051926;28;20025;-74
2022/04/13 13:15:44;;;;;;;10.52;4.22;;;;;;;;;;5051857;28;20029;-73
2022/04/13 13:18:10;;;;;;;11.00;3.50;;;;;;;;;;5050997;28;20040;-74
2022/04/13 13:20:52;;;;;;;8.32;3.20;;;;;;;;;;5064345;28;20070;-74
2022/04/13 13:23:23;;;;;;;8.88;3.58;;;;;;;;;;5071962;28;20032;-74
2022/04/13 13:25:49;;;;;;;9.45;3.80;;;;;;;;;;5072012;28;20413;-74
2022/04/13 13:28:15;;;;;;;13.77;4.70;;;;;;;;;;5072020;28;20103;-74
2022/04/13 13:30:45;;;;;;;13.02;3.92;;;;;;;;;;5071764;28;20028;-74
2022/04/13 13:33:12;;;;;;;12.05;4.45;;;;;;;;;;5071805;28;20040;-74
2022/04/13 13:35:38;;;;;;;13.02;4.28;;;;;;;;;;5071692;28;20095;-74
2022/04/13 13:38:11;;;;;;;13.75;3.85;;;;;;;;;;5071700;28;20024;-74
2022/04/13 13:40:37;;;;;;;10.55;3.55;;;;;;;;;;5071620;28;20540;-74
2022/04/13 13:43:04;;;;;;;12.10;3.70;;;;;;;;;;5052682;28;20064;-74
2022/04/13 13:45:31;;;;;;;12.73;3.45;;;;;;;;;;5051593;28;20025;-74
2022/04/13 13:47:58;;;;;;;8.88;3.15;;;;;;;;;;5051757;28;20023;-74
2022/04/13 13:50:24;;;;;;;15.90;3.22;;;;;;;;;;5051524;28;20032;-74
2022/04/13 13:52:50;;;;;;;8.70;2.75;;;;;;;;;;5051537;28;20476;-74
2022/04/13 13:55:26;;;;;;;8.95;2.50;;;;;;;;;;5051555;28;20033;-74
2022/04/13 13:57:53;;;;;;;9.07;1.95;;;;;;;;;;5051461;28;20504;-74
2022/04/13 14:00:19;;;;;;;6.78;1.50;;;;;;;;;;5051571;28;20028;-74
2022/04/13 14:02:55;;;;;;;6.10;1.63;;;;;;;;;;5051395;28;20033;-74
2022/04/13 14:05:24;;;;;;;9.98;1.70;;;;;;;;;;5051379;28;20108;-74
2022/04/13 14:07:54;;;;;;;8.27;2.22;;;;;;;;;;5051229;28;20103;-74
2022/04/13 14:10:21;;;;;;;5.07;1.65;;;;;;;;;;5051158;28;20073;-74
2022/04/13 14:12:47;;;;;;;7.65;1.80;;;;;;;;;;5051319;28;20025;-74
2022/04/13 14:15:13;;;;;;;6.30;2.08;;;;;;;;;;5068781;28;20037;-74
2022/04/13 14:17:40;;;;;;;8.65;1.80;;;;;;;;;;5071349;28;20475;-74
2022/04/13 14:20:06;;;;;;;8.13;2.33;;;;;;;;;;5071297;28;20495;-74
2022/04/13 14:22:33;;;;;;;7.53;2.70;;;;;;;;;;5071078;28;20064;-74
2022/04/13 14:24:59;;;;;;;8.98;2.55;;;;;;;;;;5071216;28;20413;-74
2022/04/13 14:27:25;;;;;;;6.07;2.38;;;;;;;;;;5071175;28;20047;-74
2022/04/13 14:29:52;;;;;;;7.68;1.80;;;;;;;;;;5073232;28;20416;-74
2022/04/13 14:32:18;;;;;;;5.57;1.50;;;;;;;;;;5074893;28;20033;-74